sensor_id;sensor_type;location;lat;lon;timestamp;temperature;humidity
64685;DHT22;51109;47.414;18.954;2023-08-24T00:00:11;23.10;99.90
64685;DHT22;51109;47.414;18.954;2023-08-24T00:02:37;23.10;99.90
64685;DHT22;51109;47.414;18.954;2023-08-24T00:05:03;23.00;99.90
64685;DHT22;51109;47.414;18.954;2023-08-24T00:07:31;22.90;99.90
64685;DHT22;51109;47.414;18.954;2023-08-24T00:09:58;22.90;99.90
64685;DHT22;51109;47.414;18.954;2023-08-24T00:12:24;22.90;99.90
64685;DHT22;51109;47.414;18.954;2023-08-24T00:14:50;22.90;99.90
64685;DHT22;51109;47.414;18.954;2023-08-24T00:17:15;22.90;99.90
64685;DHT22;51109;47.414;18.954;2023-08-24T00:19:41;22.90;99.90
64685;DHT22;51109;47.414;18.954;2023-08-24T00:22:07;22.90;99.90
64685;DHT22;51109;47.414;18.954;2023-08-24T00:24:33;22.90;99.90
64685;DHT22;51109;47.414;18.954;2023-08-24T00:26:59;22.80;99.90
64685;DHT22;51109;47.414;18.954;2023-08-24T00:29:25;22.80;99.90
64685;DHT22;51109;47.414;18.954;2023-08-24T00:31:51;22.70;99.90
64685;DHT22;51109;47.414;18.954;2023-08-24T00:34:16;22.70;99.90
64685;DHT22;51109;47.414;18.954;2023-08-24T00:36:42;22.80;99.90
64685;DHT22;51109;47.414;18.954;2023-08-24T00:39:08;22.80;99.90
64685;DHT22;51109;47.414;18.954;2023-08-24T00:41:34;22.80;99.90
64685;DHT22;51109;47.414;18.954;2023-08-24T00:44:00;22.80;99.90
64685;DHT22;51109;47.414;18.954;2023-08-24T00:46:27;22.80;99.90
64685;DHT22;51109;47.414;18.954;2023-08-24T00:48:54;22.80;99.90
64685;DHT22;51109;47.414;18.954;2023-08-24T00:51:23;22.80;99.90
64685;DHT22;51109;47.414;18.954;2023-08-24T00:53:50;22.70;99.90
64685;DHT22;51109;47.414;18.954;2023-08-24T00:56:16;22.70;99.90
64685;DHT22;51109;47.414;18.954;2023-08-24T00:58:43;22.60;99.90
64685;DHT22;51109;47.414;18.954;2023-08-24T01:01:10;22.60;99.90
64685;DHT22;51109;47.414;18.954;2023-08-24T01:03:36;22.50;99.90
64685;DHT22;51109;47.414;18.954;2023-08-24T01:06:02;22.50;99.90
64685;DHT22;51109;47.414;18.954;2023-08-24T01:08:28;22.50;99.90
64685;DHT22;51109;47.414;18.954;2023-08-24T01:11:19;22.40;99.90
64685;DHT22;51109;47.414;18.954;2023-08-24T01:14:09;22.50;99.90
64685;DHT22;51109;47.414;18.954;2023-08-24T01:16:41;22.50;99.90
64685;DHT22;51109;47.414;18.954;2023-08-24T01:19:25;22.60;99.90
64685;DHT22;51109;47.414;18.954;2023-08-24T01:21:54;22.60;99.90
64685;DHT22;51109;47.414;18.954;2023-08-24T01:24:36;22.50;99.90
64685;DHT22;51109;47.414;18.954;2023-08-24T01:27:04;22.30;99.90
64685;DHT22;51109;47.414;18.954;2023-08-24T01:29:31;22.30;99.90
64685;DHT22;51109;47.414;18.954;2023-08-24T01:31:57;22.30;99.90
64685;DHT22;51109;47.414;18.954;2023-08-24T01:34:23;22.30;99.90
64685;DHT22;51109;47.414;18.954;2023-08-24T01:36:49;22.40;99.90
64685;DHT22;51109;47.414;18.954;2023-08-24T01:39:25;22.30;99.90
64685;DHT22;51109;47.414;18.954;2023-08-24T01:41:55;22.30;99.90
64685;DHT22;51109;47.414;18.954;2023-08-24T01:44:22;22.30;99.90
64685;DHT22;51109;47.414;18.954;2023-08-24T01:46:50;22.30;99.90
64685;DHT22;51109;47.414;18.954;2023-08-24T01:49:17;22.20;99.90
64685;DHT22;51109;47.414;18.954;2023-08-24T01:51:44;22.20;99.90
64685;DHT22;51109;47.414;18.954;2023-08-24T01:54:12;22.20;99.90
64685;DHT22;51109;47.414;18.954;2023-08-24T01:56:38;22.30;99.90
64685;DHT22;51109;47.414;18.954;2023-08-24T01:59:04;22.30;99.90
64685;DHT22;51109;47.414;18.954;2023-08-24T02:01:30;22.40;99.90
64685;DHT22;51109;47.414;18.954;2023-08-24T02:03:56;22.40;99.90
64685;DHT22;51109;47.414;18.954;2023-08-24T02:06:22;22.40;99.90
64685;DHT22;51109;47.414;18.954;2023-08-24T02:08:47;22.50;99.90
64685;DHT22;51109;47.414;18.954;2023-08-24T02:11:13;22.50;99.90
64685;DHT22;51109;47.414;18.954;2023-08-24T02:13:39;22.50;99.90
64685;DHT22;51109;47.414;18.954;2023-08-24T02:16:07;22.60;99.90
64685;DHT22;51109;47.414;18.954;2023-08-24T02:18:34;22.60;99.90
64685;DHT22;51109;47.414;18.954;2023-08-24T02:23:26;22.70;99.90
64685;DHT22;51109;47.414;18.954;2023-08-24T02:25:52;22.70;99.90
64685;DHT22;51109;47.414;18.954;2023-08-24T02:28:18;22.60;99.90
64685;DHT22;51109;47.414;18.954;2023-08-24T02:30:44;22.70;99.90
64685;DHT22;51109;47.414;18.954;2023-08-24T02:33:10;22.60;99.90
64685;DHT22;51109;47.414;18.954;2023-08-24T02:35:36;22.60;99.90
64685;DHT22;51109;47.414;18.954;2023-08-24T02:38:02;22.60;99.90
64685;DHT22;51109;47.414;18.954;2023-08-24T02:40:28;22.60;99.90
64685;DHT22;51109;47.414;18.954;2023-08-24T02:42:54;22.60;99.90
64685;DHT22;51109;47.414;18.954;2023-08-24T02:45:20;22.60;99.90
64685;DHT22;51109;47.414;18.954;2023-08-24T02:47:45;22.60;99.90
64685;DHT22;51109;47.414;18.954;2023-08-24T02:50:11;22.60;99.90
64685;DHT22;51109;47.414;18.954;2023-08-24T02:52:37;22.60;99.90
64685;DHT22;51109;47.414;18.954;2023-08-24T02:55:03;22.50;99.90
64685;DHT22;51109;47.414;18.954;2023-08-24T02:57:29;22.50;99.90
64685;DHT22;51109;47.414;18.954;2023-08-24T02:59:55;22.50;99.90
64685;DHT22;51109;47.414;18.954;2023-08-24T03:02:21;22.50;99.90
64685;DHT22;51109;47.414;18.954;2023-08-24T03:04:47;22.50;99.90
64685;DHT22;51109;47.414;18.954;2023-08-24T03:07:13;22.50;99.90
64685;DHT22;51109;47.414;18.954;2023-08-24T03:09:39;22.40;99.90
64685;DHT22;51109;47.414;18.954;2023-08-24T03:12:05;22.30;99.90
64685;DHT22;51109;47.414;18.954;2023-08-24T03:14:31;22.40;99.90
64685;DHT22;51109;47.414;18.954;2023-08-24T03:19:23;22.40;99.90
64685;DHT22;51109;47.414;18.954;2023-08-24T03:21:49;22.30;99.90
64685;DHT22;51109;47.414;18.954;2023-08-24T03:24:14;22.30;99.90
64685;DHT22;51109;47.414;18.954;2023-08-24T03:26:40;22.30;99.90
64685;DHT22;51109;47.414;18.954;2023-08-24T03:29:06;22.30;99.90
64685;DHT22;51109;47.414;18.954;2023-08-24T03:31:32;22.30;99.90
64685;DHT22;51109;47.414;18.954;2023-08-24T03:33:58;22.40;99.90
64685;DHT22;51109;47.414;18.954;2023-08-24T03:36:24;22.40;99.90
64685;DHT22;51109;47.414;18.954;2023-08-24T03:38:50;22.50;99.90
64685;DHT22;51109;47.414;18.954;2023-08-24T03:41:15;22.60;99.90
64685;DHT22;51109;47.414;18.954;2023-08-24T03:43:41;22.60;99.90
64685;DHT22;51109;47.414;18.954;2023-08-24T03:46:07;22.60;99.90
64685;DHT22;51109;47.414;18.954;2023-08-24T03:48:33;22.60;99.90
64685;DHT22;51109;47.414;18.954;2023-08-24T03:50:59;22.50;99.90
64685;DHT22;51109;47.414;18.954;2023-08-24T03:53:25;22.50;99.90
64685;DHT22;51109;47.414;18.954;2023-08-24T03:55:52;22.50;99.90
64685;DHT22;51109;47.414;18.954;2023-08-24T03:58:18;22.50;99.90
64685;DHT22;51109;47.414;18.954;2023-08-24T04:00:44;22.50;99.90
64685;DHT22;51109;47.414;18.954;2023-08-24T04:03:10;22.40;99.90
64685;DHT22;51109;47.414;18.954;2023-08-24T04:05:36;22.50;99.90
64685;DHT22;51109;47.414;18.954;2023-08-24T04:08:02;22.40;99.90
64685;DHT22;51109;47.414;18.954;2023-08-24T04:10:30;22.40;99.90
64685;DHT22;51109;47.414;18.954;2023-08-24T04:12:56;22.30;99.90
64685;DHT22;51109;47.414;18.954;2023-08-24T04:15:22;22.40;99.90
64685;DHT22;51109;47.414;18.954;2023-08-24T04:17:48;22.40;99.90
64685;DHT22;51109;47.414;18.954;2023-08-24T04:20:14;22.40;99.90
64685;DHT22;51109;47.414;18.954;2023-08-24T04:22:42;22.30;99.90
64685;DHT22;51109;47.414;18.954;2023-08-24T04:25:08;22.20;99.90
64685;DHT22;51109;47.414;18.954;2023-08-24T04:27:35;22.10;99.90
64685;DHT22;51109;47.414;18.954;2023-08-24T04:30:02;22.10;99.90
64685;DHT22;51109;47.414;18.954;2023-08-24T04:32:28;22.00;99.90
64685;DHT22;51109;47.414;18.954;2023-08-24T04:34:54;22.00;99.90
64685;DHT22;51109;47.414;18.954;2023-08-24T04:37:20;22.00;99.90
64685;DHT22;51109;47.414;18.954;2023-08-24T04:39:46;22.00;99.90
64685;DHT22;51109;47.414;18.954;2023-08-24T04:42:12;22.00;99.90
64685;DHT22;51109;47.414;18.954;2023-08-24T04:44:38;22.00;99.90
64685;DHT22;51109;47.414;18.954;2023-08-24T04:47:04;22.10;99.90
64685;DHT22;51109;47.414;18.954;2023-08-24T04:49:30;22.10;99.90
64685;DHT22;51109;47.414;18.954;2023-08-24T04:51:56;22.10;99.90
64685;DHT22;51109;47.414;18.954;2023-08-24T04:54:22;22.20;99.90
64685;DHT22;51109;47.414;18.954;2023-08-24T04:56:48;22.40;99.90
64685;DHT22;51109;47.414;18.954;2023-08-24T04:59:13;22.40;99.90
64685;DHT22;51109;47.414;18.954;2023-08-24T05:01:39;22.60;99.90
64685;DHT22;51109;47.414;18.954;2023-08-24T05:04:05;22.80;99.90
64685;DHT22;51109;47.414;18.954;2023-08-24T05:06:31;23.00;99.90
64685;DHT22;51109;47.414;18.954;2023-08-24T05:08:57;23.10;99.90
64685;DHT22;51109;47.414;18.954;2023-08-24T05:11:27;23.30;99.90
64685;DHT22;51109;47.414;18.954;2023-08-24T05:13:55;23.40;99.90
64685;DHT22;51109;47.414;18.954;2023-08-24T05:16:21;23.40;99.90
64685;DHT22;51109;47.414;18.954;2023-08-24T05:18:48;23.50;99.90
64685;DHT22;51109;47.414;18.954;2023-08-24T05:21:13;23.60;99.90
64685;DHT22;51109;47.414;18.954;2023-08-24T05:23:40;23.70;99.90
64685;DHT22;51109;47.414;18.954;2023-08-24T05:26:05;23.70;99.90
64685;DHT22;51109;47.414;18.954;2023-08-24T05:28:32;23.80;99.90
64685;DHT22;51109;47.414;18.954;2023-08-24T05:30:58;23.90;99.90
64685;DHT22;51109;47.414;18.954;2023-08-24T05:33:25;24.00;99.90
64685;DHT22;51109;47.414;18.954;2023-08-24T05:35:51;24.10;99.90
64685;DHT22;51109;47.414;18.954;2023-08-24T05:38:18;24.20;99.90
64685;DHT22;51109;47.414;18.954;2023-08-24T05:40:47;24.20;99.90
64685;DHT22;51109;47.414;18.954;2023-08-24T05:43:13;24.30;99.90
64685;DHT22;51109;47.414;18.954;2023-08-24T05:45:40;24.40;99.90
64685;DHT22;51109;47.414;18.954;2023-08-24T05:48:06;24.60;99.90
64685;DHT22;51109;47.414;18.954;2023-08-24T05:50:33;24.90;99.90
64685;DHT22;51109;47.414;18.954;2023-08-24T05:52:59;24.90;99.90
64685;DHT22;51109;47.414;18.954;2023-08-24T05:55:25;25.00;99.90
64685;DHT22;51109;47.414;18.954;2023-08-24T05:57:51;25.30;99.90
64685;DHT22;51109;47.414;18.954;2023-08-24T06:00:17;25.40;99.90
64685;DHT22;51109;47.414;18.954;2023-08-24T06:02:43;25.50;99.90
64685;DHT22;51109;47.414;18.954;2023-08-24T06:05:09;25.70;99.90
64685;DHT22;51109;47.414;18.954;2023-08-24T06:07:36;25.90;99.90
64685;DHT22;51109;47.414;18.954;2023-08-24T06:10:03;26.00;99.90
64685;DHT22;51109;47.414;18.954;2023-08-24T06:12:29;26.00;99.90
64685;DHT22;51109;47.414;18.954;2023-08-24T06:14:55;26.10;99.90
64685;DHT22;51109;47.414;18.954;2023-08-24T06:17:21;26.10;99.90
64685;DHT22;51109;47.414;18.954;2023-08-24T06:19:47;26.20;99.90
64685;DHT22;51109;47.414;18.954;2023-08-24T06:22:12;26.20;99.90
64685;DHT22;51109;47.414;18.954;2023-08-24T06:24:38;26.30;99.90
64685;DHT22;51109;47.414;18.954;2023-08-24T06:27:04;26.30;99.90
64685;DHT22;51109;47.414;18.954;2023-08-24T06:29:30;26.40;99.90
64685;DHT22;51109;47.414;18.954;2023-08-24T06:31:56;26.40;99.90
64685;DHT22;51109;47.414;18.954;2023-08-24T06:34:22;26.50;99.90
64685;DHT22;51109;47.414;18.954;2023-08-24T06:36:50;26.60;99.90
64685;DHT22;51109;47.414;18.954;2023-08-24T06:39:16;26.60;99.90
64685;DHT22;51109;47.414;18.954;2023-08-24T06:41:42;26.60;99.90
64685;DHT22;51109;47.414;18.954;2023-08-24T06:44:08;26.70;99.90
64685;DHT22;51109;47.414;18.954;2023-08-24T06:46:34;26.90;99.90
64685;DHT22;51109;47.414;18.954;2023-08-24T06:49:00;27.00;99.90
64685;DHT22;51109;47.414;18.954;2023-08-24T06:51:26;27.10;99.90
64685;DHT22;51109;47.414;18.954;2023-08-24T06:53:53;27.20;99.90
64685;DHT22;51109;47.414;18.954;2023-08-24T06:56:19;27.20;99.90
64685;DHT22;51109;47.414;18.954;2023-08-24T06:58:45;27.30;99.90
64685;DHT22;51109;47.414;18.954;2023-08-24T07:01:11;27.30;99.90
64685;DHT22;51109;47.414;18.954;2023-08-24T07:03:37;27.30;99.90
64685;DHT22;51109;47.414;18.954;2023-08-24T07:06:05;27.40;99.90
64685;DHT22;51109;47.414;18.954;2023-08-24T07:08:32;27.40;99.90
64685;DHT22;51109;47.414;18.954;2023-08-24T07:10:58;27.40;99.90
64685;DHT22;51109;47.414;18.954;2023-08-24T07:13:24;27.50;99.90
64685;DHT22;51109;47.414;18.954;2023-08-24T07:15:50;27.80;99.90
64685;DHT22;51109;47.414;18.954;2023-08-24T07:18:16;27.90;99.90
64685;DHT22;51109;47.414;18.954;2023-08-24T07:20:42;27.90;99.90
64685;DHT22;51109;47.414;18.954;2023-08-24T07:23:08;27.90;99.90
64685;DHT22;51109;47.414;18.954;2023-08-24T07:25:34;28.00;99.90
64685;DHT22;51109;47.414;18.954;2023-08-24T07:28:00;28.00;99.90
64685;DHT22;51109;47.414;18.954;2023-08-24T07:30:27;28.10;99.90
64685;DHT22;51109;47.414;18.954;2023-08-24T07:32:55;28.10;99.90
64685;DHT22;51109;47.414;18.954;2023-08-24T07:35:22;28.20;99.90
64685;DHT22;51109;47.414;18.954;2023-08-24T07:37:53;28.20;99.90
64685;DHT22;51109;47.414;18.954;2023-08-24T07:40:19;28.30;99.90
64685;DHT22;51109;47.414;18.954;2023-08-24T07:42:45;28.40;99.90
64685;DHT22;51109;47.414;18.954;2023-08-24T07:45:12;28.30;99.90
64685;DHT22;51109;47.414;18.954;2023-08-24T07:47:40;28.30;99.90
64685;DHT22;51109;47.414;18.954;2023-08-24T07:50:08;28.40;99.90
64685;DHT22;51109;47.414;18.954;2023-08-24T07:52:34;28.60;99.90
64685;DHT22;51109;47.414;18.954;2023-08-24T07:55:00;28.70;99.90
64685;DHT22;51109;47.414;18.954;2023-08-24T07:57:29;28.80;99.90
64685;DHT22;51109;47.414;18.954;2023-08-24T07:59:55;28.70;99.90
64685;DHT22;51109;47.414;18.954;2023-08-24T08:02:21;28.70;99.90
64685;DHT22;51109;47.414;18.954;2023-08-24T08:04:46;28.80;99.90
64685;DHT22;51109;47.414;18.954;2023-08-24T08:07:12;28.90;99.90
64685;DHT22;51109;47.414;18.954;2023-08-24T08:09:38;28.90;99.90
64685;DHT22;51109;47.414;18.954;2023-08-24T08:12:04;28.90;99.90
64685;DHT22;51109;47.414;18.954;2023-08-24T08:14:30;29.00;99.90
64685;DHT22;51109;47.414;18.954;2023-08-24T08:16:56;29.10;99.90
64685;DHT22;51109;47.414;18.954;2023-08-24T08:19:22;29.10;99.90
64685;DHT22;51109;47.414;18.954;2023-08-24T08:21:50;28.90;99.90
64685;DHT22;51109;47.414;18.954;2023-08-24T08:24:16;28.90;99.90
64685;DHT22;51109;47.414;18.954;2023-08-24T08:26:43;28.90;99.90
64685;DHT22;51109;47.414;18.954;2023-08-24T08:29:08;29.00;99.90
64685;DHT22;51109;47.414;18.954;2023-08-24T08:31:34;28.70;99.90
64685;DHT22;51109;47.414;18.954;2023-08-24T08:34:01;28.70;99.90
64685;DHT22;51109;47.414;18.954;2023-08-24T08:36:30;28.80;99.90
64685;DHT22;51109;47.414;18.954;2023-08-24T08:38:58;28.80;99.90
64685;DHT22;51109;47.414;18.954;2023-08-24T08:41:27;28.90;99.90
64685;DHT22;51109;47.414;18.954;2023-08-24T08:43:56;28.80;99.90
64685;DHT22;51109;47.414;18.954;2023-08-24T08:46:22;29.00;99.90
64685;DHT22;51109;47.414;18.954;2023-08-24T08:48:49;29.10;99.90
64685;DHT22;51109;47.414;18.954;2023-08-24T08:51:17;29.10;99.90
64685;DHT22;51109;47.414;18.954;2023-08-24T08:53:44;29.40;99.90
64685;DHT22;51109;47.414;18.954;2023-08-24T08:56:10;29.50;99.90
64685;DHT22;51109;47.414;18.954;2023-08-24T08:58:37;29.50;99.90
64685;DHT22;51109;47.414;18.954;2023-08-24T09:01:03;29.50;99.90
64685;DHT22;51109;47.414;18.954;2023-08-24T09:03:31;29.50;99.90
64685;DHT22;51109;47.414;18.954;2023-08-24T09:05:57;29.40;99.90
64685;DHT22;51109;47.414;18.954;2023-08-24T09:08:28;29.40;99.90
64685;DHT22;51109;47.414;18.954;2023-08-24T09:10:54;29.40;99.90
64685;DHT22;51109;47.414;18.954;2023-08-24T09:13:21;29.40;99.90
64685;DHT22;51109;47.414;18.954;2023-08-24T09:15:47;29.60;99.90
64685;DHT22;51109;47.414;18.954;2023-08-24T09:18:12;29.60;99.90
64685;DHT22;51109;47.414;18.954;2023-08-24T09:20:38;29.60;99.90
64685;DHT22;51109;47.414;18.954;2023-08-24T09:23:04;29.50;99.90
64685;DHT22;51109;47.414;18.954;2023-08-24T09:25:30;29.40;99.90
64685;DHT22;51109;47.414;18.954;2023-08-24T09:28:00;29.50;99.90
64685;DHT22;51109;47.414;18.954;2023-08-24T09:30:35;29.50;99.90
64685;DHT22;51109;47.414;18.954;2023-08-24T09:33:19;29.70;99.90
64685;DHT22;51109;47.414;18.954;2023-08-24T09:35:45;29.90;99.90
64685;DHT22;51109;47.414;18.954;2023-08-24T09:38:21;30.00;99.90
64685;DHT22;51109;47.414;18.954;2023-08-24T09:40:50;30.10;99.90
64685;DHT22;51109;47.414;18.954;2023-08-24T09:43:16;30.20;99.90
64685;DHT22;51109;47.414;18.954;2023-08-24T09:45:53;30.20;99.90
64685;DHT22;51109;47.414;18.954;2023-08-24T09:48:20;30.10;99.90
64685;DHT22;51109;47.414;18.954;2023-08-24T09:50:49;30.10;99.90
64685;DHT22;51109;47.414;18.954;2023-08-24T09:53:22;30.00;99.90
64685;DHT22;51109;47.414;18.954;2023-08-24T09:55:59;30.30;99.90
64685;DHT22;51109;47.414;18.954;2023-08-24T09:58:26;30.40;99.90
64685;DHT22;51109;47.414;18.954;2023-08-24T10:00:52;30.60;99.90
64685;DHT22;51109;47.414;18.954;2023-08-24T10:03:20;30.70;99.90
64685;DHT22;51109;47.414;18.954;2023-08-24T10:05:50;30.80;99.90
64685;DHT22;51109;47.414;18.954;2023-08-24T10:08:29;30.70;99.90
64685;DHT22;51109;47.414;18.954;2023-08-24T10:10:56;30.40;99.90
64685;DHT22;51109;47.414;18.954;2023-08-24T10:13:39;30.50;99.90
64685;DHT22;51109;47.414;18.954;2023-08-24T10:16:07;30.50;99.90
64685;DHT22;51109;47.414;18.954;2023-08-24T10:18:34;30.70;99.90
64685;DHT22;51109;47.414;18.954;2023-08-24T10:21:02;30.70;99.90
64685;DHT22;51109;47.414;18.954;2023-08-24T10:23:29;30.60;99.90
64685;DHT22;51109;47.414;18.954;2023-08-24T10:25:56;30.70;99.90
64685;DHT22;51109;47.414;18.954;2023-08-24T10:28:24;30.80;99.90
64685;DHT22;51109;47.414;18.954;2023-08-24T10:30:51;30.70;99.90
64685;DHT22;51109;47.414;18.954;2023-08-24T10:33:18;30.80;99.90
64685;DHT22;51109;47.414;18.954;2023-08-24T10:35:45;30.70;99.90
64685;DHT22;51109;47.414;18.954;2023-08-24T10:38:25;30.80;99.90
64685;DHT22;51109;47.414;18.954;2023-08-24T10:40:52;30.80;99.90
64685;DHT22;51109;47.414;18.954;2023-08-24T10:43:18;30.70;99.90
64685;DHT22;51109;47.414;18.954;2023-08-24T10:45:58;30.80;99.90
64685;DHT22;51109;47.414;18.954;2023-08-24T10:48:56;31.00;99.90
64685;DHT22;51109;47.414;18.954;2023-08-24T10:53:47;31.20;99.90
64685;DHT22;51109;47.414;18.954;2023-08-24T10:56:16;31.10;99.90
64685;DHT22;51109;47.414;18.954;2023-08-24T10:58:43;31.10;99.90
64685;DHT22;51109;47.414;18.954;2023-08-24T11:01:20;31.20;99.90
64685;DHT22;51109;47.414;18.954;2023-08-24T11:03:55;31.10;99.90
64685;DHT22;51109;47.414;18.954;2023-08-24T11:06:23;31.20;99.90
64685;DHT22;51109;47.414;18.954;2023-08-24T11:09:06;31.20;99.90
64685;DHT22;51109;47.414;18.954;2023-08-24T11:11:40;31.20;99.90
64685;DHT22;51109;47.414;18.954;2023-08-24T11:14:16;30.90;99.90
64685;DHT22;51109;47.414;18.954;2023-08-24T11:16:48;31.10;99.90
64685;DHT22;51109;47.414;18.954;2023-08-24T11:19:15;31.10;99.90
64685;DHT22;51109;47.414;18.954;2023-08-24T11:21:43;31.10;99.90
64685;DHT22;51109;47.414;18.954;2023-08-24T11:24:09;31.20;99.90
64685;DHT22;51109;47.414;18.954;2023-08-24T11:26:42;31.20;99.90
64685;DHT22;51109;47.414;18.954;2023-08-24T11:29:08;31.30;99.90
64685;DHT22;51109;47.414;18.954;2023-08-24T11:31:35;31.40;99.90
64685;DHT22;51109;47.414;18.954;2023-08-24T11:34:01;31.40;99.90
64685;DHT22;51109;47.414;18.954;2023-08-24T11:36:27;31.30;99.90
64685;DHT22;51109;47.414;18.954;2023-08-24T11:38:58;31.20;99.90
64685;DHT22;51109;47.414;18.954;2023-08-24T11:41:25;31.10;99.90
64685;DHT22;51109;47.414;18.954;2023-08-24T11:44:00;31.20;99.90
64685;DHT22;51109;47.414;18.954;2023-08-24T11:46:28;31.50;99.90
64685;DHT22;51109;47.414;18.954;2023-08-24T11:48:56;31.50;99.90
64685;DHT22;51109;47.414;18.954;2023-08-24T11:51:22;31.30;99.90
64685;DHT22;51109;47.414;18.954;2023-08-24T11:53:49;31.40;99.90
64685;DHT22;51109;47.414;18.954;2023-08-24T11:56:14;31.40;99.90
64685;DHT22;51109;47.414;18.954;2023-08-24T11:58:43;31.60;99.90
64685;DHT22;51109;47.414;18.954;2023-08-24T12:01:13;31.70;99.90
64685;DHT22;51109;47.414;18.954;2023-08-24T12:03:39;31.70;99.90
64685;DHT22;51109;47.414;18.954;2023-08-24T12:06:16;31.70;99.90
64685;DHT22;51109;47.414;18.954;2023-08-24T12:08:45;31.60;99.90
64685;DHT22;51109;47.414;18.954;2023-08-24T12:11:16;31.60;99.90
64685;DHT22;51109;47.414;18.954;2023-08-24T12:13:50;31.70;99.90
64685;DHT22;51109;47.414;18.954;2023-08-24T12:16:17;32.00;99.90
64685;DHT22;51109;47.414;18.954;2023-08-24T12:18:57;31.90;99.90
64685;DHT22;51109;47.414;18.954;2023-08-24T12:21:25;31.70;99.90
64685;DHT22;51109;47.414;18.954;2023-08-24T12:24:05;31.90;99.90
64685;DHT22;51109;47.414;18.954;2023-08-24T12:26:32;32.10;99.90
64685;DHT22;51109;47.414;18.954;2023-08-24T12:29:18;32.00;99.90
64685;DHT22;51109;47.414;18.954;2023-08-24T12:31:44;31.80;99.90
64685;DHT22;51109;47.414;18.954;2023-08-24T12:34:10;32.00;99.90
64685;DHT22;51109;47.414;18.954;2023-08-24T12:36:37;32.20;99.90
64685;DHT22;51109;47.414;18.954;2023-08-24T12:39:05;32.40;99.90
64685;DHT22;51109;47.414;18.954;2023-08-24T12:41:31;32.50;99.90
64685;DHT22;51109;47.414;18.954;2023-08-24T12:43:57;32.50;99.90
64685;DHT22;51109;47.414;18.954;2023-08-24T12:46:24;32.40;99.90
64685;DHT22;51109;47.414;18.954;2023-08-24T12:48:51;32.30;99.90
64685;DHT22;51109;47.414;18.954;2023-08-24T12:51:17;32.10;99.90
64685;DHT22;51109;47.414;18.954;2023-08-24T12:53:43;32.10;99.90
64685;DHT22;51109;47.414;18.954;2023-08-24T12:56:09;32.20;99.90
64685;DHT22;51109;47.414;18.954;2023-08-24T12:58:35;32.10;99.90
64685;DHT22;51109;47.414;18.954;2023-08-24T13:01:01;32.00;99.90
64685;DHT22;51109;47.414;18.954;2023-08-24T13:03:28;32.40;99.90
64685;DHT22;51109;47.414;18.954;2023-08-24T13:05:54;32.40;99.90
64685;DHT22;51109;47.414;18.954;2023-08-24T13:08:19;32.70;99.90
64685;DHT22;51109;47.414;18.954;2023-08-24T13:10:45;32.70;99.90
64685;DHT22;51109;47.414;18.954;2023-08-24T13:13:11;32.60;99.90
64685;DHT22;51109;47.414;18.954;2023-08-24T13:15:38;32.60;99.90
64685;DHT22;51109;47.414;18.954;2023-08-24T13:18:04;32.50;99.90
64685;DHT22;51109;47.414;18.954;2023-08-24T13:20:29;32.60;99.90
64685;DHT22;51109;47.414;18.954;2023-08-24T13:22:55;32.50;99.90
64685;DHT22;51109;47.414;18.954;2023-08-24T13:25:21;32.30;99.90
64685;DHT22;51109;47.414;18.954;2023-08-24T13:27:47;32.60;99.90
64685;DHT22;51109;47.414;18.954;2023-08-24T13:30:13;32.80;99.90
64685;DHT22;51109;47.414;18.954;2023-08-24T13:32:39;32.40;99.90
64685;DHT22;51109;47.414;18.954;2023-08-24T13:35:05;32.40;99.90
64685;DHT22;51109;47.414;18.954;2023-08-24T13:37:31;32.80;99.90
64685;DHT22;51109;47.414;18.954;2023-08-24T13:39:58;32.80;99.90
64685;DHT22;51109;47.414;18.954;2023-08-24T13:42:25;32.70;99.90
64685;DHT22;51109;47.414;18.954;2023-08-24T13:44:50;32.60;99.90
64685;DHT22;51109;47.414;18.954;2023-08-24T13:47:16;32.60;99.90
64685;DHT22;51109;47.414;18.954;2023-08-24T13:49:43;32.60;99.90
64685;DHT22;51109;47.414;18.954;2023-08-24T13:52:09;32.90;99.90
64685;DHT22;51109;47.414;18.954;2023-08-24T13:54:34;32.80;99.90
64685;DHT22;51109;47.414;18.954;2023-08-24T13:57:00;32.80;99.90
64685;DHT22;51109;47.414;18.954;2023-08-24T13:59:27;32.60;99.90
64685;DHT22;51109;47.414;18.954;2023-08-24T14:01:53;32.80;99.90
64685;DHT22;51109;47.414;18.954;2023-08-24T14:04:18;32.80;99.90
64685;DHT22;51109;47.414;18.954;2023-08-24T14:06:45;32.70;99.90
64685;DHT22;51109;47.414;18.954;2023-08-24T14:09:11;32.70;99.90
64685;DHT22;51109;47.414;18.954;2023-08-24T14:11:36;32.60;99.90
64685;DHT22;51109;47.414;18.954;2023-08-24T14:14:02;32.50;99.90
64685;DHT22;51109;47.414;18.954;2023-08-24T14:16:28;32.60;99.90
64685;DHT22;51109;47.414;18.954;2023-08-24T14:18:54;32.70;99.90
64685;DHT22;51109;47.414;18.954;2023-08-24T14:21:20;33.00;99.90
64685;DHT22;51109;47.414;18.954;2023-08-24T14:23:46;33.00;99.90
64685;DHT22;51109;47.414;18.954;2023-08-24T14:26:12;32.90;99.90
64685;DHT22;51109;47.414;18.954;2023-08-24T14:28:58;33.00;99.90
64685;DHT22;51109;47.414;18.954;2023-08-24T14:31:26;32.90;99.90
64685;DHT22;51109;47.414;18.954;2023-08-24T14:33:53;32.90;99.90
64685;DHT22;51109;47.414;18.954;2023-08-24T14:38:46;32.90;99.90
64685;DHT22;51109;47.414;18.954;2023-08-24T14:41:13;33.00;99.90
64685;DHT22;51109;47.414;18.954;2023-08-24T14:43:40;33.10;99.90
64685;DHT22;51109;47.414;18.954;2023-08-24T14:46:06;33.30;99.90
64685;DHT22;51109;47.414;18.954;2023-08-24T14:50:59;33.40;99.90
64685;DHT22;51109;47.414;18.954;2023-08-24T14:53:28;33.40;99.90
64685;DHT22;51109;47.414;18.954;2023-08-24T14:55:56;33.00;99.90
64685;DHT22;51109;47.414;18.954;2023-08-24T14:58:22;33.10;99.90
64685;DHT22;51109;47.414;18.954;2023-08-24T15:00:53;33.00;99.90
64685;DHT22;51109;47.414;18.954;2023-08-24T15:03:21;33.00;99.90
64685;DHT22;51109;47.414;18.954;2023-08-24T15:05:57;32.80;99.90
64685;DHT22;51109;47.414;18.954;2023-08-24T15:08:23;32.80;99.90
64685;DHT22;51109;47.414;18.954;2023-08-24T15:10:50;32.90;99.90
64685;DHT22;51109;47.414;18.954;2023-08-24T15:13:15;32.80;99.90
64685;DHT22;51109;47.414;18.954;2023-08-24T15:15:41;32.60;99.90
64685;DHT22;51109;47.414;18.954;2023-08-24T15:18:09;32.50;99.90
64685;DHT22;51109;47.414;18.954;2023-08-24T15:20:35;32.50;99.90
64685;DHT22;51109;47.414;18.954;2023-08-24T15:23:01;32.40;99.90
64685;DHT22;51109;47.414;18.954;2023-08-24T15:25:27;32.50;99.90
64685;DHT22;51109;47.414;18.954;2023-08-24T15:30:19;32.20;99.90